sensor_id;sensor_type;location;lat;lon;timestamp;P1;durP1;ratioP1;P2;durP2;ratioP2
10825;SDS011;5466;55.898;14.094;2023-08-31T00:01:11;6.75;;;3.38;;
10825;SDS011;5466;55.898;14.094;2023-08-31T00:03:12;6.03;;;3.50;;
10825;SDS011;5466;55.898;14.094;2023-08-31T00:05:14;8.63;;;3.65;;
10825;SDS011;5466;55.898;14.094;2023-08-31T00:07:14;11.25;;;4.00;;
10825;SDS011;5466;55.898;14.094;2023-08-31T00:09:16;5.70;;;3.45;;
10825;SDS011;5466;55.898;14.094;2023-08-31T00:11:16;8.35;;;3.50;;
10825;SDS011;5466;55.898;14.094;2023-08-31T00:13:17;6.15;;;3.63;;
10825;SDS011;5466;55.898;14.094;2023-08-31T00:15:17;3.80;;;3.40;;
10825;SDS011;5466;55.898;14.094;2023-08-31T00:17:18;4.40;;;3.55;;
10825;SDS011;5466;55.898;14.094;2023-08-31T00:19:19;4.75;;;3.70;;
10825;SDS011;5466;55.898;14.094;2023-08-31T00:21:21;6.28;;;3.70;;
10825;SDS011;5466;55.898;14.094;2023-08-31T00:23:21;4.90;;;3.17;;
10825;SDS011;5466;55.898;14.094;2023-08-31T00:25:22;4.93;;;3.90;;
10825;SDS011;5466;55.898;14.094;2023-08-31T00:27:22;4.60;;;3.47;;
10825;SDS011;5466;55.898;14.094;2023-08-31T00:29:23;8.30;;;3.72;;
10825;SDS011;5466;55.898;14.094;2023-08-31T00:31:25;5.30;;;3.17;;
10825;SDS011;5466;55.898;14.094;2023-08-31T00:33:27;5.25;;;3.45;;
10825;SDS011;5466;55.898;14.094;2023-08-31T00:35:28;5.72;;;3.60;;
10825;SDS011;5466;55.898;14.094;2023-08-31T00:37:28;5.22;;;3.53;;
10825;SDS011;5466;55.898;14.094;2023-08-31T00:39:30;3.42;;;3.10;;
10825;SDS011;5466;55.898;14.094;2023-08-31T00:41:31;4.60;;;3.60;;
10825;SDS011;5466;55.898;14.094;2023-08-31T00:43:32;5.53;;;3.58;;
10825;SDS011;5466;55.898;14.094;2023-08-31T00:45:33;4.63;;;3.35;;
10825;SDS011;5466;55.898;14.094;2023-08-31T00:47:34;4.65;;;3.40;;
10825;SDS011;5466;55.898;14.094;2023-08-31T00:49:35;6.18;;;3.53;;
10825;SDS011;5466;55.898;14.094;2023-08-31T00:51:36;4.88;;;3.90;;
10825;SDS011;5466;55.898;14.094;2023-08-31T00:53:37;6.63;;;3.72;;
10825;SDS011;5466;55.898;14.094;2023-08-31T00:55:38;4.85;;;3.60;;
10825;SDS011;5466;55.898;14.094;2023-08-31T00:57:40;5.30;;;3.67;;
10825;SDS011;5466;55.898;14.094;2023-08-31T00:59:41;4.18;;;3.67;;
10825;SDS011;5466;55.898;14.094;2023-08-31T01:02:03;6.63;;;3.70;;
10825;SDS011;5466;55.898;14.094;2023-08-31T01:09:05;6.47;;;3.15;;
10825;SDS011;5466;55.898;14.094;2023-08-31T01:13:42;5.03;;;3.40;;
10825;SDS011;5466;55.898;14.094;2023-08-31T01:15:50;5.07;;;3.33;;
10825;SDS011;5466;55.898;14.094;2023-08-31T01:17:54;8.90;;;3.55;;
10825;SDS011;5466;55.898;14.094;2023-08-31T01:19:57;4.15;;;3.70;;
10825;SDS011;5466;55.898;14.094;2023-08-31T01:22:00;4.70;;;3.65;;
10825;SDS011;5466;55.898;14.094;2023-08-31T01:24:05;5.75;;;3.42;;
10825;SDS011;5466;55.898;14.094;2023-08-31T01:26:07;5.80;;;3.65;;
10825;SDS011;5466;55.898;14.094;2023-08-31T01:28:08;6.93;;;3.30;;
10825;SDS011;5466;55.898;14.094;2023-08-31T01:30:10;6.53;;;3.72;;
10825;SDS011;5466;55.898;14.094;2023-08-31T01:32:11;7.20;;;4.15;;
10825;SDS011;5466;55.898;14.094;2023-08-31T01:34:12;5.30;;;4.20;;
10825;SDS011;5466;55.898;14.094;2023-08-31T01:38:29;7.25;;;3.45;;
10825;SDS011;5466;55.898;14.094;2023-08-31T01:40:35;7.15;;;3.72;;
10825;SDS011;5466;55.898;14.094;2023-08-31T01:42:43;4.88;;;3.70;;
10825;SDS011;5466;55.898;14.094;2023-08-31T01:44:46;5.90;;;3.53;;
10825;SDS011;5466;55.898;14.094;2023-08-31T01:46:51;5.85;;;3.58;;
10825;SDS011;5466;55.898;14.094;2023-08-31T01:48:54;7.88;;;3.90;;
10825;SDS011;5466;55.898;14.094;2023-08-31T01:50:54;5.90;;;3.40;;
10825;SDS011;5466;55.898;14.094;2023-08-31T01:52:55;6.90;;;3.58;;
10825;SDS011;5466;55.898;14.094;2023-08-31T01:54:56;7.70;;;3.58;;
10825;SDS011;5466;55.898;14.094;2023-08-31T01:56:56;3.55;;;3.22;;
10825;SDS011;5466;55.898;14.094;2023-08-31T01:58:57;4.47;;;3.60;;
10825;SDS011;5466;55.898;14.094;2023-08-31T02:00:57;5.18;;;3.72;;
10825;SDS011;5466;55.898;14.094;2023-08-31T02:02:58;4.35;;;3.50;;
10825;SDS011;5466;55.898;14.094;2023-08-31T02:04:59;7.00;;;3.72;;
10825;SDS011;5466;55.898;14.094;2023-08-31T02:07:01;4.75;;;3.35;;
10825;SDS011;5466;55.898;14.094;2023-08-31T02:09:02;4.63;;;3.53;;
10825;SDS011;5466;55.898;14.094;2023-08-31T02:11:03;4.93;;;3.30;;
10825;SDS011;5466;55.898;14.094;2023-08-31T02:13:04;4.65;;;3.30;;
10825;SDS011;5466;55.898;14.094;2023-08-31T02:15:05;8.38;;;3.45;;
10825;SDS011;5466;55.898;14.094;2023-08-31T02:17:06;6.63;;;3.50;;
10825;SDS011;5466;55.898;14.094;2023-08-31T02:19:07;8.88;;;3.63;;
10825;SDS011;5466;55.898;14.094;2023-08-31T02:21:07;5.07;;;3.45;;
10825;SDS011;5466;55.898;14.094;2023-08-31T02:23:08;3.45;;;3.05;;
10825;SDS011;5466;55.898;14.094;2023-08-31T02:25:09;4.60;;;3.17;;
10825;SDS011;5466;55.898;14.094;2023-08-31T02:27:10;4.25;;;3.20;;
10825;SDS011;5466;55.898;14.094;2023-08-31T02:29:10;4.30;;;3.10;;
10825;SDS011;5466;55.898;14.094;2023-08-31T02:31:12;4.88;;;3.00;;
10825;SDS011;5466;55.898;14.094;2023-08-31T02:33:14;6.05;;;3.60;;
10825;SDS011;5466;55.898;14.094;2023-08-31T02:35:14;6.50;;;3.63;;
10825;SDS011;5466;55.898;14.094;2023-08-31T02:37:15;7.35;;;3.53;;
10825;SDS011;5466;55.898;14.094;2023-08-31T02:39:16;6.00;;;3.20;;
10825;SDS011;5466;55.898;14.094;2023-08-31T02:41:16;3.53;;;3.08;;
10825;SDS011;5466;55.898;14.094;2023-08-31T02:43:17;3.40;;;3.10;;
10825;SDS011;5466;55.898;14.094;2023-08-31T02:45:17;4.22;;;3.00;;
10825;SDS011;5466;55.898;14.094;2023-08-31T02:47:18;4.32;;;3.40;;
10825;SDS011;5466;55.898;14.094;2023-08-31T02:49:19;5.78;;;3.33;;
10825;SDS011;5466;55.898;14.094;2023-08-31T02:51:19;4.88;;;3.35;;
10825;SDS011;5466;55.898;14.094;2023-08-31T02:53:20;4.60;;;3.33;;
10825;SDS011;5466;55.898;14.094;2023-08-31T02:55:20;4.03;;;3.10;;
10825;SDS011;5466;55.898;14.094;2023-08-31T02:57:21;4.95;;;3.33;;
10825;SDS011;5466;55.898;14.094;2023-08-31T02:59:23;6.95;;;3.45;;
10825;SDS011;5466;55.898;14.094;2023-08-31T03:01:23;5.57;;;3.22;;
10825;SDS011;5466;55.898;14.094;2023-08-31T03:03:24;10.77;;;3.53;;
10825;SDS011;5466;55.898;14.094;2023-08-31T03:05:24;7.22;;;3.22;;
10825;SDS011;5466;55.898;14.094;2023-08-31T03:07:26;5.03;;;3.33;;
10825;SDS011;5466;55.898;14.094;2023-08-31T03:09:26;3.90;;;3.25;;
10825;SDS011;5466;55.898;14.094;2023-08-31T03:11:27;4.32;;;3.25;;
10825;SDS011;5466;55.898;14.094;2023-08-31T03:13:27;3.55;;;3.10;;
10825;SDS011;5466;55.898;14.094;2023-08-31T03:15:28;6.53;;;3.55;;
10825;SDS011;5466;55.898;14.094;2023-08-31T03:17:28;5.55;;;3.28;;
10825;SDS011;5466;55.898;14.094;2023-08-31T03:19:29;4.63;;;3.08;;
10825;SDS011;5466;55.898;14.094;2023-08-31T03:21:29;7.25;;;3.13;;
10825;SDS011;5466;55.898;14.094;2023-08-31T03:23:30;4.57;;;2.95;;
10825;SDS011;5466;55.898;14.094;2023-08-31T03:25:31;4.93;;;2.92;;
10825;SDS011;5466;55.898;14.094;2023-08-31T03:27:31;4.88;;;2.88;;
10825;SDS011;5466;55.898;14.094;2023-08-31T03:29:32;5.65;;;3.40;;
10825;SDS011;5466;55.898;14.094;2023-08-31T03:31:34;6.78;;;3.53;;
10825;SDS011;5466;55.898;14.094;2023-08-31T03:33:34;3.88;;;3.00;;
10825;SDS011;5466;55.898;14.094;2023-08-31T03:35:35;3.28;;;3.08;;
10825;SDS011;5466;55.898;14.094;2023-08-31T03:37:35;5.32;;;3.05;;
10825;SDS011;5466;55.898;14.094;2023-08-31T03:39:36;6.18;;;3.25;;
10825;SDS011;5466;55.898;14.094;2023-08-31T03:41:37;6.70;;;3.33;;
10825;SDS011;5466;55.898;14.094;2023-08-31T03:43:37;7.25;;;2.88;;
10825;SDS011;5466;55.898;14.094;2023-08-31T03:45:38;3.50;;;3.05;;
10825;SDS011;5466;55.898;14.094;2023-08-31T03:47:38;4.20;;;3.13;;
10825;SDS011;5466;55.898;14.094;2023-08-31T03:49:39;6.70;;;2.88;;
10825;SDS011;5466;55.898;14.094;2023-08-31T03:51:40;6.20;;;3.08;;
10825;SDS011;5466;55.898;14.094;2023-08-31T03:53:40;3.35;;;3.05;;
10825;SDS011;5466;55.898;14.094;2023-08-31T03:55:41;5.28;;;3.00;;
10825;SDS011;5466;55.898;14.094;2023-08-31T03:57:42;3.70;;;3.00;;
10825;SDS011;5466;55.898;14.094;2023-08-31T03:59:43;6.32;;;3.33;;
10825;SDS011;5466;55.898;14.094;2023-08-31T04:01:43;6.55;;;3.28;;
10825;SDS011;5466;55.898;14.094;2023-08-31T04:03:44;3.72;;;3.00;;
10825;SDS011;5466;55.898;14.094;2023-08-31T04:05:45;3.58;;;2.78;;
10825;SDS011;5466;55.898;14.094;2023-08-31T04:07:46;4.43;;;3.05;;
10825;SDS011;5466;55.898;14.094;2023-08-31T04:09:47;5.50;;;2.78;;
10825;SDS011;5466;55.898;14.094;2023-08-31T04:11:47;6.47;;;3.20;;
10825;SDS011;5466;55.898;14.094;2023-08-31T04:13:48;5.68;;;3.05;;
10825;SDS011;5466;55.898;14.094;2023-08-31T04:15:48;6.53;;;3.30;;
10825;SDS011;5466;55.898;14.094;2023-08-31T04:17:49;5.18;;;3.22;;
10825;SDS011;5466;55.898;14.094;2023-08-31T04:19:50;3.40;;;2.80;;
10825;SDS011;5466;55.898;14.094;2023-08-31T04:21:50;4.43;;;3.38;;
10825;SDS011;5466;55.898;14.094;2023-08-31T04:23:51;6.63;;;3.28;;
10825;SDS011;5466;55.898;14.094;2023-08-31T04:25:52;6.65;;;3.15;;
10825;SDS011;5466;55.898;14.094;2023-08-31T04:27:53;4.03;;;3.30;;
10825;SDS011;5466;55.898;14.094;2023-08-31T04:29:54;2.83;;;2.63;;
10825;SDS011;5466;55.898;14.094;2023-08-31T04:31:54;4.65;;;2.90;;
10825;SDS011;5466;55.898;14.094;2023-08-31T04:33:55;3.50;;;2.85;;
10825;SDS011;5466;55.898;14.094;2023-08-31T04:35:55;4.03;;;3.30;;
10825;SDS011;5466;55.898;14.094;2023-08-31T04:37:56;4.63;;;2.75;;
10825;SDS011;5466;55.898;14.094;2023-08-31T04:39:57;7.35;;;3.38;;
10825;SDS011;5466;55.898;14.094;2023-08-31T04:41:58;5.10;;;3.20;;
10825;SDS011;5466;55.898;14.094;2023-08-31T04:43:58;5.82;;;3.10;;
10825;SDS011;5466;55.898;14.094;2023-08-31T04:45:59;3.45;;;3.13;;
10825;SDS011;5466;55.898;14.094;2023-08-31T04:48:00;6.00;;;3.50;;
10825;SDS011;5466;55.898;14.094;2023-08-31T04:50:00;6.60;;;4.03;;
10825;SDS011;5466;55.898;14.094;2023-08-31T04:52:01;6.15;;;3.78;;
10825;SDS011;5466;55.898;14.094;2023-08-31T04:54:02;4.93;;;3.60;;
10825;SDS011;5466;55.898;14.094;2023-08-31T04:56:03;4.93;;;3.70;;
10825;SDS011;5466;55.898;14.094;2023-08-31T04:58:03;5.45;;;3.67;;
10825;SDS011;5466;55.898;14.094;2023-08-31T05:00:04;6.95;;;4.13;;
10825;SDS011;5466;55.898;14.094;2023-08-31T05:02:09;6.57;;;3.67;;
10825;SDS011;5466;55.898;14.094;2023-08-31T05:04:09;7.50;;;3.60;;
10825;SDS011;5466;55.898;14.094;2023-08-31T05:06:10;4.10;;;3.60;;
10825;SDS011;5466;55.898;14.094;2023-08-31T05:08:10;5.18;;;3.42;;
10825;SDS011;5466;55.898;14.094;2023-08-31T05:10:11;5.82;;;3.58;;
10825;SDS011;5466;55.898;14.094;2023-08-31T05:12:11;6.03;;;3.60;;
10825;SDS011;5466;55.898;14.094;2023-08-31T05:14:12;4.20;;;3.50;;
10825;SDS011;5466;55.898;14.094;2023-08-31T05:16:13;3.80;;;3.30;;
10825;SDS011;5466;55.898;14.094;2023-08-31T05:18:13;6.13;;;3.10;;
10825;SDS011;5466;55.898;14.094;2023-08-31T05:20:14;5.68;;;3.90;;
10825;SDS011;5466;55.898;14.094;2023-08-31T05:22:15;8.65;;;3.35;;
10825;SDS011;5466;55.898;14.094;2023-08-31T05:24:15;6.95;;;3.08;;
10825;SDS011;5466;55.898;14.094;2023-08-31T05:26:16;5.50;;;3.05;;
10825;SDS011;5466;55.898;14.094;2023-08-31T05:28:16;5.07;;;3.20;;
10825;SDS011;5466;55.898;14.094;2023-08-31T05:30:17;5.18;;;3.38;;
10825;SDS011;5466;55.898;14.094;2023-08-31T05:32:17;7.20;;;3.25;;
10825;SDS011;5466;55.898;14.094;2023-08-31T05:34:20;7.97;;;3.70;;
10825;SDS011;5466;55.898;14.094;2023-08-31T05:36:22;5.85;;;3.10;;
10825;SDS011;5466;55.898;14.094;2023-08-31T05:38:22;11.20;;;3.60;;
10825;SDS011;5466;55.898;14.094;2023-08-31T05:40:23;7.07;;;3.40;;
10825;SDS011;5466;55.898;14.094;2023-08-31T05:42:24;3.63;;;3.17;;
10825;SDS011;5466;55.898;14.094;2023-08-31T05:44:24;4.35;;;3.45;;
10825;SDS011;5466;55.898;14.094;2023-08-31T05:46:25;4.65;;;3.67;;
10825;SDS011;5466;55.898;14.094;2023-08-31T05:48:25;3.35;;;3.05;;
10825;SDS011;5466;55.898;14.094;2023-08-31T05:50:26;4.38;;;3.25;;
10825;SDS011;5466;55.898;14.094;2023-08-31T05:52:27;5.53;;;3.22;;
10825;SDS011;5466;55.898;14.094;2023-08-31T05:54:28;5.80;;;3.35;;
10825;SDS011;5466;55.898;14.094;2023-08-31T05:56:31;5.15;;;3.63;;
10825;SDS011;5466;55.898;14.094;2023-08-31T05:58:31;8.35;;;4.05;;
10825;SDS011;5466;55.898;14.094;2023-08-31T06:00:33;4.97;;;3.70;;
10825;SDS011;5466;55.898;14.094;2023-08-31T06:02:35;6.60;;;3.15;;
10825;SDS011;5466;55.898;14.094;2023-08-31T06:04:36;4.28;;;3.40;;
10825;SDS011;5466;55.898;14.094;2023-08-31T06:06:37;3.50;;;3.20;;
10825;SDS011;5466;55.898;14.094;2023-08-31T06:08:37;5.90;;;3.55;;
10825;SDS011;5466;55.898;14.094;2023-08-31T06:10:38;5.15;;;3.70;;
10825;SDS011;5466;55.898;14.094;2023-08-31T06:12:39;5.35;;;3.60;;
10825;SDS011;5466;55.898;14.094;2023-08-31T06:14:39;5.75;;;3.63;;
10825;SDS011;5466;55.898;14.094;2023-08-31T06:16:40;8.32;;;3.88;;
10825;SDS011;5466;55.898;14.094;2023-08-31T06:18:40;6.35;;;4.35;;
10825;SDS011;5466;55.898;14.094;2023-08-31T06:20:41;5.00;;;3.40;;
10825;SDS011;5466;55.898;14.094;2023-08-31T06:22:41;10.32;;;5.15;;
10825;SDS011;5466;55.898;14.094;2023-08-31T06:24:42;8.93;;;4.00;;
10825;SDS011;5466;55.898;14.094;2023-08-31T06:26:43;4.55;;;3.95;;
10825;SDS011;5466;55.898;14.094;2023-08-31T06:28:43;5.30;;;3.47;;
10825;SDS011;5466;55.898;14.094;2023-08-31T06:30:44;6.05;;;4.18;;
10825;SDS011;5466;55.898;14.094;2023-08-31T06:32:47;7.30;;;3.83;;
10825;SDS011;5466;55.898;14.094;2023-08-31T06:34:48;6.15;;;4.20;;
10825;SDS011;5466;55.898;14.094;2023-08-31T06:36:49;5.35;;;3.80;;
10825;SDS011;5466;55.898;14.094;2023-08-31T06:38:49;6.68;;;4.00;;
10825;SDS011;5466;55.898;14.094;2023-08-31T06:40:50;5.60;;;4.40;;
10825;SDS011;5466;55.898;14.094;2023-08-31T06:42:51;9.00;;;6.18;;
10825;SDS011;5466;55.898;14.094;2023-08-31T06:44:51;8.73;;;5.03;;
10825;SDS011;5466;55.898;14.094;2023-08-31T06:46:52;5.22;;;4.28;;
10825;SDS011;5466;55.898;14.094;2023-08-31T06:48:53;6.10;;;4.03;;
10825;SDS011;5466;55.898;14.094;2023-08-31T06:50:53;12.13;;;4.30;;
10825;SDS011;5466;55.898;14.094;2023-08-31T06:52:54;5.47;;;4.53;;
10825;SDS011;5466;55.898;14.094;2023-08-31T06:54:55;9.90;;;4.85;;
10825;SDS011;5466;55.898;14.094;2023-08-31T06:56:56;6.07;;;4.35;;
10825;SDS011;5466;55.898;14.094;2023-08-31T06:58:57;4.22;;;3.72;;
10825;SDS011;5466;55.898;14.094;2023-08-31T07:00:58;4.43;;;4.03;;
10825;SDS011;5466;55.898;14.094;2023-08-31T07:02:59;5.63;;;4.88;;
10825;SDS011;5466;55.898;14.094;2023-08-31T07:04:59;8.60;;;4.80;;
10825;SDS011;5466;55.898;14.094;2023-08-31T07:07:01;6.55;;;5.03;;
10825;SDS011;5466;55.898;14.094;2023-08-31T07:09:02;6.13;;;5.53;;
10825;SDS011;5466;55.898;14.094;2023-08-31T07:11:06;12.23;;;6.95;;
10825;SDS011;5466;55.898;14.094;2023-08-31T07:13:07;10.85;;;6.97;;
10825;SDS011;5466;55.898;14.094;2023-08-31T07:15:07;12.65;;;6.70;;
10825;SDS011;5466;55.898;14.094;2023-08-31T07:17:08;9.82;;;7.35;;
10825;SDS011;5466;55.898;14.094;2023-08-31T07:19:09;10.93;;;7.65;;
10825;SDS011;5466;55.898;14.094;2023-08-31T07:21:09;11.77;;;7.45;;
10825;SDS011;5466;55.898;14.094;2023-08-31T07:23:10;9.77;;;7.32;;
10825;SDS011;5466;55.898;14.094;2023-08-31T07:25:10;11.27;;;7.30;;
10825;SDS011;5466;55.898;14.094;2023-08-31T07:27:11;15.80;;;7.45;;
10825;SDS011;5466;55.898;14.094;2023-08-31T07:29:12;13.23;;;8.10;;
10825;SDS011;5466;55.898;14.094;2023-08-31T07:31:12;11.18;;;7.43;;
10825;SDS011;5466;55.898;14.094;2023-08-31T07:33:13;12.55;;;7.32;;
10825;SDS011;5466;55.898;14.094;2023-08-31T07:35:14;11.93;;;8.27;;
10825;SDS011;5466;55.898;14.094;2023-08-31T07:37:14;12.15;;;7.68;;
10825;SDS011;5466;55.898;14.094;2023-08-31T07:39:15;11.63;;;7.68;;
10825;SDS011;5466;55.898;14.094;2023-08-31T07:41:18;10.20;;;7.75;;
10825;SDS011;5466;55.898;14.094;2023-08-31T07:43:19;10.18;;;7.35;;
10825;SDS011;5466;55.898;14.094;2023-08-31T07:45:19;11.60;;;6.88;;
10825;SDS011;5466;55.898;14.094;2023-08-31T07:47:20;8.93;;;6.65;;
10825;SDS011;5466;55.898;14.094;2023-08-31T07:49:21;9.15;;;6.82;;
10825;SDS011;5466;55.898;14.094;2023-08-31T07:51:21;9.68;;;6.32;;
10825;SDS011;5466;55.898;14.094;2023-08-31T07:53:23;8.80;;;6.45;;
10825;SDS011;5466;55.898;14.094;2023-08-31T07:55:24;8.27;;;6.43;;
10825;SDS011;5466;55.898;14.094;2023-08-31T07:57:24;7.63;;;5.57;;
10825;SDS011;5466;55.898;14.094;2023-08-31T07:59:25;7.25;;;5.90;;
10825;SDS011;5466;55.898;14.094;2023-08-31T08:01:25;6.38;;;5.78;;
10825;SDS011;5466;55.898;14.094;2023-08-31T08:03:26;7.47;;;5.93;;
10825;SDS011;5466;55.898;14.094;2023-08-31T08:05:27;6.35;;;5.28;;
10825;SDS011;5466;55.898;14.094;2023-08-31T08:07:28;6.30;;;5.68;;
10825;SDS011;5466;55.898;14.094;2023-08-31T08:09:28;8.40;;;5.95;;
10825;SDS011;5466;55.898;14.094;2023-08-31T08:11:30;6.10;;;5.47;;
10825;SDS011;5466;55.898;14.094;2023-08-31T08:13:31;10.18;;;5.57;;
10825;SDS011;5466;55.898;14.094;2023-08-31T08:15:31;6.50;;;4.72;;
10825;SDS011;5466;55.898;14.094;2023-08-31T08:17:32;5.93;;;4.60;;
10825;SDS011;5466;55.898;14.094;2023-08-31T08:19:33;6.47;;;4.85;;
10825;SDS011;5466;55.898;14.094;2023-08-31T08:21:34;6.38;;;4.82;;
10825;SDS011;5466;55.898;14.094;2023-08-31T08:23:34;8.05;;;4.60;;
10825;SDS011;5466;55.898;14.094;2023-08-31T08:25:35;11.75;;;5.20;;
10825;SDS011;5466;55.898;14.094;2023-08-31T08:27:35;6.03;;;4.40;;
10825;SDS011;5466;55.898;14.094;2023-08-31T08:29:36;5.82;;;4.43;;
10825;SDS011;5466;55.898;14.094;2023-08-31T08:31:37;5.10;;;4.60;;
10825;SDS011;5466;55.898;14.094;2023-08-31T08:33:38;5.57;;;5.07;;
10825;SDS011;5466;55.898;14.094;2023-08-31T08:35:38;7.20;;;4.95;;
10825;SDS011;5466;55.898;14.094;2023-08-31T08:37:39;8.25;;;4.82;;
10825;SDS011;5466;55.898;14.094;2023-08-31T08:39:39;7.65;;;4.95;;
10825;SDS011;5466;55.898;14.094;2023-08-31T08:41:40;6.95;;;4.70;;
10825;SDS011;5466;55.898;14.094;2023-08-31T08:43:42;6.60;;;5.65;;
10825;SDS011;5466;55.898;14.094;2023-08-31T08:45:45;9.70;;;5.03;;
10825;SDS011;5466;55.898;14.094;2023-08-31T08:47:47;8.23;;;5.18;;
10825;SDS011;5466;55.898;14.094;2023-08-31T08:49:48;6.80;;;5.43;;
10825;SDS011;5466;55.898;14.094;2023-08-31T08:51:49;6.00;;;5.40;;
10825;SDS011;5466;55.898;14.094;2023-08-31T08:53:50;8.45;;;5.97;;
10825;SDS011;5466;55.898;14.094;2023-08-31T08:55:52;6.97;;;5.78;;
10825;SDS011;5466;55.898;14.094;2023-08-31T08:57:53;8.98;;;5.90;;
10825;SDS011;5466;55.898;14.094;2023-08-31T08:59:53;9.27;;;5.07;;
10825;SDS011;5466;55.898;14.094;2023-08-31T09:01:54;5.20;;;4.70;;
10825;SDS011;5466;55.898;14.094;2023-08-31T09:03:55;6.38;;;4.95;;
10825;SDS011;5466;55.898;14.094;2023-08-31T09:05:55;6.10;;;5.32;;
10825;SDS011;5466;55.898;14.094;2023-08-31T09:08:05;8.77;;;4.72;;
10825;SDS011;5466;55.898;14.094;2023-08-31T09:10:09;5.15;;;4.40;;
10825;SDS011;5466;55.898;14.094;2023-08-31T09:12:09;5.15;;;4.63;;
10825;SDS011;5466;55.898;14.094;2023-08-31T09:14:17;5.35;;;3.95;;
10825;SDS011;5466;55.898;14.094;2023-08-31T09:16:23;7.22;;;4.05;;
10825;SDS011;5466;55.898;14.094;2023-08-31T09:18:32;4.65;;;3.63;;
10825;SDS011;5466;55.898;14.094;2023-08-31T09:20:42;4.90;;;3.17;;
10825;SDS011;5466;55.898;14.094;2023-08-31T09:22:44;5.70;;;2.33;;
10825;SDS011;5466;55.898;14.094;2023-08-31T09:24:46;1.95;;;1.77;;
10825;SDS011;5466;55.898;14.094;2023-08-31T09:26:47;2.47;;;1.70;;
10825;SDS011;5466;55.898;14.094;2023-08-31T09:28:50;3.30;;;1.80;;
10825;SDS011;5466;55.898;14.094;2023-08-31T09:30:50;2.20;;;1.50;;
10825;SDS011;5466;55.898;14.094;2023-08-31T09:32:52;1.48;;;1.15;;
10825;SDS011;5466;55.898;14.094;2023-08-31T09:34:54;1.77;;;1.48;;
10825;SDS011;5466;55.898;14.094;2023-08-31T09:36:54;1.27;;;1.17;;
10825;SDS011;5466;55.898;14.094;2023-08-31T09:38:58;3.05;;;1.77;;
10825;SDS011;5466;55.898;14.094;2023-08-31T09:41:03;2.95;;;1.60;;
10825;SDS011;5466;55.898;14.094;2023-08-31T09:43:07;2.05;;;1.40;;
10825;SDS011;5466;55.898;14.094;2023-08-31T09:45:07;2.13;;;1.70;;
10825;SDS011;5466;55.898;14.094;2023-08-31T09:47:08;2.75;;;1.50;;
10825;SDS011;5466;55.898;14.094;2023-08-31T09:49:10;2.28;;;1.35;;
10825;SDS011;5466;55.898;14.094;2023-08-31T09:51:17;3.03;;;1.85;;
10825;SDS011;5466;55.898;14.094;2023-08-31T09:53:25;3.28;;;1.70;;
10825;SDS011;5466;55.898;14.094;2023-08-31T09:55:29;3.88;;;1.40;;
10825;SDS011;5466;55.898;14.094;2023-08-31T09:57:31;2.88;;;1.38;;
10825;SDS011;5466;55.898;14.094;2023-08-31T09:59:33;1.42;;;1.33;;
10825;SDS011;5466;55.898;14.094;2023-08-31T10:01:35;1.50;;;1.38;;
10825;SDS011;5466;55.898;14.094;2023-08-31T10:03:36;3.05;;;1.60;;
10825;SDS011;5466;55.898;14.094;2023-08-31T10:05:37;3.00;;;1.55;;
10825;SDS011;5466;55.898;14.094;2023-08-31T10:07:38;2.90;;;1.30;;
10825;SDS011;5466;55.898;14.094;2023-08-31T10:09:39;2.35;;;1.50;;
10825;SDS011;5466;55.898;14.094;2023-08-31T10:11:40;2.15;;;1.42;;
10825;SDS011;5466;55.898;14.094;2023-08-31T10:13:42;2.42;;;1.45;;
10825;SDS011;5466;55.898;14.094;2023-08-31T10:15:44;2.45;;;1.50;;
10825;SDS011;5466;55.898;14.094;2023-08-31T10:17:46;1.67;;;1.40;;
10825;SDS011;5466;55.898;14.094;2023-08-31T10:19:47;2.22;;;1.52;;
10825;SDS011;5466;55.898;14.094;2023-08-31T10:21:47;2.08;;;1.65;;
10825;SDS011;5466;55.898;14.094;2023-08-31T10:23:49;2.38;;;1.60;;
10825;SDS011;5466;55.898;14.094;2023-08-31T10:27:53;2.80;;;1.58;;
10825;SDS011;5466;55.898;14.094;2023-08-31T10:29:54;2.33;;;1.50;;
10825;SDS011;5466;55.898;14.094;2023-08-31T10:31:54;2.80;;;1.52;;
10825;SDS011;5466;55.898;14.094;2023-08-31T10:34:04;2.70;;;1.73;;
10825;SDS011;5466;55.898;14.094;2023-08-31T10:36:11;1.90;;;1.60;;
10825;SDS011;5466;55.898;14.094;2023-08-31T10:38:14;3.08;;;1.73;;
10825;SDS011;5466;55.898;14.094;2023-08-31T10:40:25;3.75;;;1.83;;
10825;SDS011;5466;55.898;14.094;2023-08-31T10:42:26;4.32;;;1.60;;
10825;SDS011;5466;55.898;14.094;2023-08-31T10:44:27;2.40;;;1.60;;
10825;SDS011;5466;55.898;14.094;2023-08-31T10:48:48;4.50;;;1.60;;
10825;SDS011;5466;55.898;14.094;2023-08-31T10:51:09;3.88;;;1.75;;
10825;SDS011;5466;55.898;14.094;2023-08-31T10:53:16;3.35;;;1.75;;
10825;SDS011;5466;55.898;14.094;2023-08-31T10:55:17;1.73;;;1.38;;
10825;SDS011;5466;55.898;14.094;2023-08-31T10:57:17;2.00;;;1.65;;
10825;SDS011;5466;55.898;14.094;2023-08-31T10:59:49;3.67;;;1.85;;
10825;SDS011;5466;55.898;14.094;2023-08-31T11:03:58;3.40;;;1.98;;
10825;SDS011;5466;55.898;14.094;2023-08-31T11:05:59;2.65;;;1.50;;
10825;SDS011;5466;55.898;14.094;2023-08-31T11:07:59;2.03;;;1.60;;
10825;SDS011;5466;55.898;14.094;2023-08-31T11:12:21;3.15;;;1.88;;
10825;SDS011;5466;55.898;14.094;2023-08-31T11:14:23;2.63;;;1.45;;
10825;SDS011;5466;55.898;14.094;2023-08-31T11:16:24;3.28;;;1.70;;
10825;SDS011;5466;55.898;14.094;2023-08-31T11:18:25;3.78;;;1.80;;
10825;SDS011;5466;55.898;14.094;2023-08-31T11:20:26;4.82;;;1.70;;
10825;SDS011;5466;55.898;14.094;2023-08-31T11:22:28;3.95;;;1.60;;
10825;SDS011;5466;55.898;14.094;2023-08-31T11:24:31;1.95;;;1.63;;
10825;SDS011;5466;55.898;14.094;2023-08-31T11:26:33;3.42;;;1.98;;
10825;SDS011;5466;55.898;14.094;2023-08-31T11:28:33;3.10;;;1.70;;
10825;SDS011;5466;55.898;14.094;2023-08-31T11:30:34;2.25;;;1.80;;
10825;SDS011;5466;55.898;14.094;2023-08-31T11:32:36;1.83;;;1.60;;
10825;SDS011;5466;55.898;14.094;2023-08-31T11:34:40;2.08;;;1.70;;
10825;SDS011;5466;55.898;14.094;2023-08-31T11:36:45;1.63;;;1.52;;
10825;SDS011;5466;55.898;14.094;2023-08-31T11:38:49;1.60;;;1.50;;
10825;SDS011;5466;55.898;14.094;2023-08-31T11:40:50;3.58;;;2.00;;
10825;SDS011;5466;55.898;14.094;2023-08-31T11:42:57;2.35;;;1.80;;
10825;SDS011;5466;55.898;14.094;2023-08-31T11:45:00;2.55;;;2.13;;
10825;SDS011;5466;55.898;14.094;2023-08-31T11:47:05;2.15;;;2.05;;
10825;SDS011;5466;55.898;14.094;2023-08-31T11:49:06;3.67;;;2.40;;
10825;SDS011;5466;55.898;14.094;2023-08-31T11:51:07;2.97;;;2.30;;
10825;SDS011;5466;55.898;14.094;2023-08-31T11:53:08;5.60;;;2.50;;
10825;SDS011;5466;55.898;14.094;2023-08-31T11:55:12;2.67;;;2.17;;
10825;SDS011;5466;55.898;14.094;2023-08-31T11:57:14;3.35;;;2.65;;
10825;SDS011;5466;55.898;14.094;2023-08-31T11:59:15;4.90;;;3.00;;
10825;SDS011;5466;55.898;14.094;2023-08-31T12:01:21;4.07;;;2.55;;
10825;SDS011;5466;55.898;14.094;2023-08-31T12:03:22;2.38;;;1.52;;
10825;SDS011;5466;55.898;14.094;2023-08-31T12:05:22;2.42;;;1.50;;
10825;SDS011;5466;55.898;14.094;2023-08-31T12:07:23;3.90;;;1.70;;
10825;SDS011;5466;55.898;14.094;2023-08-31T12:09:24;13.90;;;2.17;;
10825;SDS011;5466;55.898;14.094;2023-08-31T12:11:28;9.23;;;2.10;;
10825;SDS011;5466;55.898;14.094;2023-08-31T12:13:28;3.70;;;1.75;;
10825;SDS011;5466;55.898;14.094;2023-08-31T12:15:32;9.05;;;2.28;;
10825;SDS011;5466;55.898;14.094;2023-08-31T12:17:36;5.07;;;2.05;;
10825;SDS011;5466;55.898;14.094;2023-08-31T12:19:38;8.43;;;2.17;;
10825;SDS011;5466;55.898;14.094;2023-08-31T12:21:39;8.45;;;2.33;;
10825;SDS011;5466;55.898;14.094;2023-08-31T12:23:45;5.82;;;2.50;;
10825;SDS011;5466;55.898;14.094;2023-08-31T12:25:48;9.98;;;2.80;;
10825;SDS011;5466;55.898;14.094;2023-08-31T12:27:53;12.35;;;2.78;;
10825;SDS011;5466;55.898;14.094;2023-08-31T12:29:54;13.98;;;3.25;;